sensor_id;sensor_type;location;lat;lon;timestamp;pressure;altitude;pressure_sealevel;temperature;humidity
30636;BME280;17400;52.392;9.750;2023-05-11T00:01:24;100754.09;;;15.33;100.00
30636;BME280;17400;52.392;9.750;2023-05-11T00:03:52;100750.75;;;15.31;100.00
30636;BME280;17400;52.392;9.750;2023-05-11T00:06:21;100745.28;;;15.31;100.00
30636;BME280;17400;52.392;9.750;2023-05-11T00:08:49;100748.25;;;15.30;100.00
30636;BME280;17400;52.392;9.750;2023-05-11T00:11:17;100748.88;;;15.32;100.00
30636;BME280;17400;52.392;9.750;2023-05-11T00:13:46;100748.25;;;15.30;100.00
30636;BME280;17400;52.392;9.750;2023-05-11T00:16:14;100740.31;;;15.28;100.00
30636;BME280;17400;52.392;9.750;2023-05-11T00:18:42;100747.88;;;15.26;100.00
30636;BME280;17400;52.392;9.750;2023-05-11T00:21:10;100750.22;;;15.23;100.00
30636;BME280;17400;52.392;9.750;2023-05-11T00:23:38;100748.78;;;15.20;100.00
30636;BME280;17400;52.392;9.750;2023-05-11T00:26:05;100746.88;;;15.21;100.00
30636;BME280;17400;52.392;9.750;2023-05-11T00:28:33;100748.16;;;15.18;100.00
30636;BME280;17400;52.392;9.750;2023-05-11T00:31:02;100750.06;;;15.18;100.00
30636;BME280;17400;52.392;9.750;2023-05-11T00:33:30;100748.41;;;15.16;100.00
30636;BME280;17400;52.392;9.750;2023-05-11T00:35:58;100751.38;;;15.15;100.00
30636;BME280;17400;52.392;9.750;2023-05-11T00:38:26;100743.84;;;15.10;100.00
30636;BME280;17400;52.392;9.750;2023-05-11T00:40:54;100751.88;;;15.05;100.00
30636;BME280;17400;52.392;9.750;2023-05-11T00:43:22;100751.28;;;15.03;100.00
30636;BME280;17400;52.392;9.750;2023-05-11T00:45:50;100755.53;;;14.99;100.00
30636;BME280;17400;52.392;9.750;2023-05-11T00:48:20;100748.63;;;14.96;100.00
30636;BME280;17400;52.392;9.750;2023-05-11T00:50:48;100751.53;;;14.95;100.00
30636;BME280;17400;52.392;9.750;2023-05-11T00:53:16;100751.34;;;14.96;100.00
30636;BME280;17400;52.392;9.750;2023-05-11T00:55:44;100752.78;;;14.99;100.00
30636;BME280;17400;52.392;9.750;2023-05-11T00:58:13;100751.88;;;15.05;100.00
30636;BME280;17400;52.392;9.750;2023-05-11T01:00:41;100750.59;;;15.08;100.00
30636;BME280;17400;52.392;9.750;2023-05-11T01:03:10;100747.63;;;15.09;100.00
30636;BME280;17400;52.392;9.750;2023-05-11T01:05:43;100753.06;;;15.09;100.00
30636;BME280;17400;52.392;9.750;2023-05-11T01:08:17;100753.69;;;15.11;100.00
30636;BME280;17400;52.392;9.750;2023-05-11T01:10:50;100753.69;;;15.11;100.00
30636;BME280;17400;52.392;9.750;2023-05-11T01:13:25;100762.50;;;15.13;100.00
30636;BME280;17400;52.392;9.750;2023-05-11T01:15:55;100755.38;;;15.12;100.00
30636;BME280;17400;52.392;9.750;2023-05-11T01:18:25;100755.22;;;15.07;100.00
30636;BME280;17400;52.392;9.750;2023-05-11T01:20:58;100758.16;;;15.06;100.00
30636;BME280;17400;52.392;9.750;2023-05-11T01:26:34;100755.78;;;14.91;100.00
30636;BME280;17400;52.392;9.750;2023-05-11T01:32:14;100750.41;;;14.84;100.00
30636;BME280;17400;52.392;9.750;2023-05-11T01:34:43;100764.25;;;14.82;100.00
30636;BME280;17400;52.392;9.750;2023-05-11T01:37:15;100763.88;;;14.79;100.00
30636;BME280;17400;52.392;9.750;2023-05-11T01:39:51;100763.50;;;14.75;100.00
30636;BME280;17400;52.392;9.750;2023-05-11T01:42:20;100766.06;;;14.70;100.00
30636;BME280;17400;52.392;9.750;2023-05-11T01:44:52;100765.22;;;14.70;100.00
30636;BME280;17400;52.392;9.750;2023-05-11T01:47:24;100761.03;;;14.67;100.00
30636;BME280;17400;52.392;9.750;2023-05-11T01:49:53;100766.72;;;14.65;100.00
30636;BME280;17400;52.392;9.750;2023-05-11T01:52:24;100763.16;;;14.65;100.00
30636;BME280;17400;52.392;9.750;2023-05-11T01:54:53;100761.69;;;14.62;100.00
30636;BME280;17400;52.392;9.750;2023-05-11T01:57:22;100762.31;;;14.64;100.00
30636;BME280;17400;52.392;9.750;2023-05-11T01:59:51;100759.78;;;14.63;100.00
30636;BME280;17400;52.392;9.750;2023-05-11T02:02:20;100759.78;;;14.63;100.00
30636;BME280;17400;52.392;9.750;2023-05-11T02:04:51;100767.38;;;14.61;100.00
30636;BME280;17400;52.392;9.750;2023-05-11T02:07:21;100767.38;;;14.61;100.00
30636;BME280;17400;52.392;9.750;2023-05-11T02:09:51;100761.91;;;14.61;100.00
30636;BME280;17400;52.392;9.750;2023-05-11T02:12:20;100766.13;;;14.63;100.00
30636;BME280;17400;52.392;9.750;2023-05-11T02:14:50;100762.75;;;14.61;100.00
30636;BME280;17400;52.392;9.750;2023-05-11T02:17:20;100758.97;;;14.62;100.00
30636;BME280;17400;52.392;9.750;2023-05-11T02:19:50;100763.59;;;14.62;100.00
30636;BME280;17400;52.392;9.750;2023-05-11T02:22:21;100768.19;;;14.61;100.00
30636;BME280;17400;52.392;9.750;2023-05-11T02:24:49;100766.50;;;14.60;100.00
30636;BME280;17400;52.392;9.750;2023-05-11T02:27:17;100772.81;;;14.61;100.00
30636;BME280;17400;52.392;9.750;2023-05-11T02:29:45;100756.47;;;14.61;100.00
30636;BME280;17400;52.392;9.750;2023-05-11T02:32:16;100766.13;;;14.63;100.00
30636;BME280;17400;52.392;9.750;2023-05-11T02:34:49;100768.63;;;14.65;100.00
30636;BME280;17400;52.392;9.750;2023-05-11T02:37:24;100772.16;;;14.65;100.00
30636;BME280;17400;52.392;9.750;2023-05-11T02:39:57;100779.50;;;14.65;100.00
30636;BME280;17400;52.392;9.750;2023-05-11T02:42:26;100771.97;;;14.60;100.00
30636;BME280;17400;52.392;9.750;2023-05-11T02:44:59;100773.25;;;14.58;100.00
30636;BME280;17400;52.392;9.750;2023-05-11T02:47:31;100778.31;;;14.54;100.00
30636;BME280;17400;52.392;9.750;2023-05-11T02:50:01;100773.28;;;14.51;100.00
30636;BME280;17400;52.392;9.750;2023-05-11T02:52:32;100767.84;;;14.51;100.00
30636;BME280;17400;52.392;9.750;2023-05-11T02:55:01;100769.13;;;14.48;100.00
30636;BME280;17400;52.392;9.750;2023-05-11T02:57:29;100767.91;;;14.44;100.00
30636;BME280;17400;52.392;9.750;2023-05-11T02:59:58;100766.03;;;14.45;100.00
30636;BME280;17400;52.392;9.750;2023-05-11T03:02:27;100772.28;;;14.45;100.00
30636;BME280;17400;52.392;9.750;2023-05-11T03:04:55;100773.97;;;14.46;100.00
30636;BME280;17400;52.392;9.750;2023-05-11T03:07:22;100765.81;;;14.46;100.00
30636;BME280;17400;52.392;9.750;2023-05-11T03:09:51;100768.94;;;14.50;100.00
30636;BME280;17400;52.392;9.750;2023-05-11T03:12:19;100779.59;;;14.52;100.00
30636;BME280;17400;52.392;9.750;2023-05-11T03:14:48;100774.16;;;14.52;100.00
30636;BME280;17400;52.392;9.750;2023-05-11T03:17:17;100771.41;;;14.52;100.00
30636;BME280;17400;52.392;9.750;2023-05-11T03:19:46;100776.25;;;14.49;100.00
30636;BME280;17400;52.392;9.750;2023-05-11T03:22:14;100772.06;;;14.47;100.00
30636;BME280;17400;52.392;9.750;2023-05-11T03:24:43;100777.53;;;14.47;100.00
30636;BME280;17400;52.392;9.750;2023-05-11T03:27:13;100779.41;;;14.46;100.00
30636;BME280;17400;52.392;9.750;2023-05-11T03:29:41;100781.53;;;14.44;100.00
30636;BME280;17400;52.392;9.750;2023-05-11T03:32:11;100771.69;;;14.43;100.00
30636;BME280;17400;52.392;9.750;2023-05-11T03:34:39;100768.34;;;14.41;100.00
30636;BME280;17400;52.392;9.750;2023-05-11T03:37:09;100773.81;;;14.41;100.00
30636;BME280;17400;52.392;9.750;2023-05-11T03:39:38;100767.31;;;14.42;100.00
30636;BME280;17400;52.392;9.750;2023-05-11T03:42:08;100770.84;;;14.43;100.00
30636;BME280;17400;52.392;9.750;2023-05-11T03:44:40;100765.41;;;14.43;100.00
30636;BME280;17400;52.392;9.750;2023-05-11T03:47:09;100764.81;;;14.41;100.00
30636;BME280;17400;52.392;9.750;2023-05-11T03:49:37;100763.13;;;14.40;100.00
30636;BME280;17400;52.392;9.750;2023-05-11T03:52:07;100762.09;;;14.41;100.00
30636;BME280;17400;52.392;9.750;2023-05-11T03:54:34;100770.84;;;14.43;100.00
30636;BME280;17400;52.392;9.750;2023-05-11T03:57:02;100762.91;;;14.41;100.00
30636;BME280;17400;52.392;9.750;2023-05-11T03:59:30;100763.13;;;14.40;100.00
30636;BME280;17400;52.392;9.750;2023-05-11T04:01:59;100765.00;;;14.39;100.00
30636;BME280;17400;52.392;9.750;2023-05-11T04:04:28;100763.34;;;14.38;100.00
30636;BME280;17400;52.392;9.750;2023-05-11T04:06:57;100770.44;;;14.39;100.00
30636;BME280;17400;52.392;9.750;2023-05-11T04:09:25;100765.00;;;14.39;100.00
30636;BME280;17400;52.392;9.750;2023-05-11T04:11:52;100767.53;;;14.41;100.00
30636;BME280;17400;52.392;9.750;2023-05-11T04:14:20;100759.56;;;14.39;100.00
30636;BME280;17400;52.392;9.750;2023-05-11T04:16:48;100764.59;;;14.42;100.00
30636;BME280;17400;52.392;9.750;2023-05-11T04:19:17;100770.03;;;14.42;100.00
30636;BME280;17400;52.392;9.750;2023-05-11T04:21:45;100761.63;;;14.44;100.00
30636;BME280;17400;52.392;9.750;2023-05-11T04:24:14;100767.03;;;14.50;100.00
30636;BME280;17400;52.392;9.750;2023-05-11T04:26:43;100768.69;;;14.52;100.00
30636;BME280;17400;52.392;9.750;2023-05-11T04:29:11;100770.97;;;14.55;100.00
30636;BME280;17400;52.392;9.750;2023-05-11T04:31:38;100771.19;;;14.53;100.00
30636;BME280;17400;52.392;9.750;2023-05-11T04:34:06;100777.47;;;14.54;100.00
30636;BME280;17400;52.392;9.750;2023-05-11T04:36:36;100778.97;;;14.49;100.00
30636;BME280;17400;52.392;9.750;2023-05-11T04:39:03;100773.75;;;14.48;100.00
30636;BME280;17400;52.392;9.750;2023-05-11T04:41:33;100773.75;;;14.48;100.00
30636;BME280;17400;52.392;9.750;2023-05-11T04:44:01;100776.69;;;14.46;100.00
30636;BME280;17400;52.392;9.750;2023-05-11T04:46:29;100772.06;;;14.47;100.00
30636;BME280;17400;52.392;9.750;2023-05-11T04:48:57;100776.06;;;14.44;100.00
30636;BME280;17400;52.392;9.750;2023-05-11T04:51:25;100777.16;;;14.43;100.00
30636;BME280;17400;52.392;9.750;2023-05-11T04:53:54;100773.81;;;14.41;100.00
30636;BME280;17400;52.392;9.750;2023-05-11T04:56:22;100781.75;;;14.43;100.00
30636;BME280;17400;52.392;9.750;2023-05-11T04:58:50;100781.97;;;14.41;100.00
30636;BME280;17400;52.392;9.750;2023-05-11T05:01:17;100780.53;;;14.39;100.00
30636;BME280;17400;52.392;9.750;2023-05-11T05:03:47;100788.47;;;14.40;100.00
30636;BME280;17400;52.392;9.750;2023-05-11T05:06:15;100788.03;;;14.43;100.00
30636;BME280;17400;52.392;9.750;2023-05-11T05:08:42;100785.91;;;14.45;100.00
30636;BME280;17400;52.392;9.750;2023-05-11T05:11:11;100788.88;;;14.44;100.00
30636;BME280;17400;52.392;9.750;2023-05-11T05:13:39;100789.69;;;14.44;100.00
30636;BME280;17400;52.392;9.750;2023-05-11T05:16:07;100785.91;;;14.45;100.00
30636;BME280;17400;52.392;9.750;2023-05-11T05:18:38;100789.69;;;14.44;100.00
30636;BME280;17400;52.392;9.750;2023-05-11T05:21:09;100790.31;;;14.46;100.00
30636;BME280;17400;52.392;9.750;2023-05-11T05:23:37;100793.88;;;14.47;100.00
30636;BME280;17400;52.392;9.750;2023-05-11T05:26:04;100796.41;;;14.42;100.00
30636;BME280;17400;52.392;9.750;2023-05-11T05:28:33;100794.75;;;14.41;100.00
30636;BME280;17400;52.392;9.750;2023-05-11T05:31:02;100798.09;;;14.43;100.00
30636;BME280;17400;52.392;9.750;2023-05-11T05:33:30;100798.09;;;14.43;100.00
30636;BME280;17400;52.392;9.750;2023-05-11T05:35:58;100793.63;;;14.48;100.00
30636;BME280;17400;52.392;9.750;2023-05-11T05:38:26;100803.47;;;14.49;100.00
30636;BME280;17400;52.392;9.750;2023-05-11T05:40:54;100796.34;;;14.48;100.00
30636;BME280;17400;52.392;9.750;2023-05-11T05:43:22;100797.97;;;14.56;100.00
30636;BME280;17400;52.392;9.750;2023-05-11T05:45:51;100807.00;;;14.57;100.00
30636;BME280;17400;52.392;9.750;2023-05-11T05:48:19;100808.88;;;14.56;100.00
30636;BME280;17400;52.392;9.750;2023-05-11T05:50:47;100810.16;;;14.54;100.00
30636;BME280;17400;52.392;9.750;2023-05-11T05:53:14;100810.78;;;14.56;100.00
30636;BME280;17400;52.392;9.750;2023-05-11T05:55:42;100809.94;;;14.55;100.00
30636;BME280;17400;52.392;9.750;2023-05-11T05:58:10;100821.72;;;14.49;100.00
30636;BME280;17400;52.392;9.750;2023-05-11T06:00:38;100827.41;;;14.47;100.00
30636;BME280;17400;52.392;9.750;2023-05-11T06:03:07;100819.44;;;14.46;100.00
30636;BME280;17400;52.392;9.750;2023-05-11T06:05:35;100819.44;;;14.46;100.00
30636;BME280;17400;52.392;9.750;2023-05-11T06:08:03;100829.03;;;14.48;100.00
30636;BME280;17400;52.392;9.750;2023-05-11T06:10:36;100826.31;;;14.48;100.00
30636;BME280;17400;52.392;9.750;2023-05-11T06:13:07;100830.31;;;14.53;100.00
30636;BME280;17400;52.392;9.750;2023-05-11T06:15:35;100820.81;;;14.55;100.00
30636;BME280;17400;52.392;9.750;2023-05-11T06:18:03;100826.69;;;14.59;100.00
30636;BME280;17400;52.392;9.750;2023-05-11T06:20:33;100828.56;;;14.65;100.00
30636;BME280;17400;52.392;9.750;2023-05-11T06:23:01;100823.69;;;14.67;100.00
30636;BME280;17400;52.392;9.750;2023-05-11T06:25:29;100822.44;;;14.63;100.00
30636;BME280;17400;52.392;9.750;2023-05-11T06:27:57;100826.69;;;14.59;100.00
30636;BME280;17400;52.392;9.750;2023-05-11T06:30:25;100825.63;;;14.60;100.00
30636;BME280;17400;52.392;9.750;2023-05-11T06:32:53;100823.53;;;14.62;100.00
30636;BME280;17400;52.392;9.750;2023-05-11T06:35:21;100822.91;;;14.60;100.00
30636;BME280;17400;52.392;9.750;2023-05-11T06:37:50;100826.69;;;14.59;100.00
30636;BME280;17400;52.392;9.750;2023-05-11T06:40:18;100822.28;;;14.58;100.00
30636;BME280;17400;52.392;9.750;2023-05-11T06:42:46;100818.06;;;14.62;100.00
30636;BME280;17400;52.392;9.750;2023-05-11T06:45:14;100815.16;;;14.63;100.00
30636;BME280;17400;52.392;9.750;2023-05-11T06:47:42;100821.84;;;14.61;100.00
30636;BME280;17400;52.392;9.750;2023-05-11T06:50:10;100825.16;;;14.63;100.00
30636;BME280;17400;52.392;9.750;2023-05-11T06:52:38;100827.50;;;14.66;100.00
30636;BME280;17400;52.392;9.750;2023-05-11T06:55:11;100820.16;;;14.66;100.00
30636;BME280;17400;52.392;9.750;2023-05-11T06:57:39;100830.22;;;14.66;100.00
30636;BME280;17400;52.392;9.750;2023-05-11T07:00:08;100821.19;;;14.65;100.00
30636;BME280;17400;52.392;9.750;2023-05-11T07:02:36;100827.50;;;14.66;100.00
30636;BME280;17400;52.392;9.750;2023-05-11T07:05:04;100820.78;;;14.69;100.00
30636;BME280;17400;52.392;9.750;2023-05-11T07:07:32;100826.00;;;14.70;100.00
30636;BME280;17400;52.392;9.750;2023-05-11T07:10:00;100823.28;;;14.70;100.00
30636;BME280;17400;52.392;9.750;2023-05-11T07:12:28;100830.19;;;14.73;100.00
30636;BME280;17400;52.392;9.750;2023-05-11T07:14:56;100823.88;;;14.72;100.00
30636;BME280;17400;52.392;9.750;2023-05-11T07:17:24;100822.66;;;14.68;100.00
30636;BME280;17400;52.392;9.750;2023-05-11T07:19:54;100827.69;;;14.64;100.00
30636;BME280;17400;52.392;9.750;2023-05-11T07:22:21;100818.06;;;14.69;100.00
30636;BME280;17400;52.392;9.750;2023-05-11T07:24:50;100824.31;;;14.69;100.00
30636;BME280;17400;52.392;9.750;2023-05-11T07:27:17;100827.06;;;14.69;100.00
30636;BME280;17400;52.392;9.750;2023-05-11T07:29:46;100821.59;;;14.69;100.00
30636;BME280;17400;52.392;9.750;2023-05-11T07:32:14;100831.00;;;14.73;100.00
30636;BME280;17400;52.392;9.750;2023-05-11T07:34:43;100823.06;;;14.72;100.00
30636;BME280;17400;52.392;9.750;2023-05-11T07:37:11;100827.44;;;14.73;100.00
30636;BME280;17400;52.392;9.750;2023-05-11T07:39:39;100831.22;;;14.72;100.00
30636;BME280;17400;52.392;9.750;2023-05-11T07:42:07;100818.44;;;14.72;100.00
30636;BME280;17400;52.392;9.750;2023-05-11T07:44:34;100827.69;;;14.71;100.00
30636;BME280;17400;52.392;9.750;2023-05-11T07:47:04;100826.00;;;14.70;100.00
30636;BME280;17400;52.392;9.750;2023-05-11T07:49:31;100826.81;;;14.71;100.00
30636;BME280;17400;52.392;9.750;2023-05-11T07:52:09;100830.59;;;14.70;100.00
30636;BME280;17400;52.392;9.750;2023-05-11T07:54:37;100834.59;;;14.67;100.00
30636;BME280;17400;52.392;9.750;2023-05-11T07:57:06;100837.13;;;14.69;100.00
30636;BME280;17400;52.392;9.750;2023-05-11T07:59:34;100832.31;;;14.64;100.00
30636;BME280;17400;52.392;9.750;2023-05-11T08:02:04;100836.97;;;14.63;100.00
30636;BME280;17400;52.392;9.750;2023-05-11T08:04:32;100836.50;;;14.66;100.00
30636;BME280;17400;52.392;9.750;2023-05-11T08:07:00;100839.00;;;14.68;100.00
30636;BME280;17400;52.392;9.750;2023-05-11T08:09:27;100842.34;;;14.70;100.00
30636;BME280;17400;52.392;9.750;2023-05-11T08:11:56;100837.31;;;14.67;100.00
30636;BME280;17400;52.392;9.750;2023-05-11T08:14:24;100843.84;;;14.66;100.00
30636;BME280;17400;52.392;9.750;2023-05-11T08:16:52;100836.72;;;14.65;100.00
30636;BME280;17400;52.392;9.750;2023-05-11T08:19:21;100841.31;;;14.64;100.00
30636;BME280;17400;52.392;9.750;2023-05-11T08:21:49;100848.47;;;14.59;100.00
30636;BME280;17400;52.392;9.750;2023-05-11T08:24:16;100847.88;;;14.57;100.00
30636;BME280;17400;52.392;9.750;2023-05-11T08:26:44;100854.59;;;14.54;100.00
30636;BME280;17400;52.392;9.750;2023-05-11T08:29:12;100849.38;;;14.53;100.00
30636;BME280;17400;52.392;9.750;2023-05-11T08:31:41;100848.28;;;14.54;100.00
30636;BME280;17400;52.392;9.750;2023-05-11T08:34:09;100847.03;;;14.56;100.00
30636;BME280;17400;52.392;9.750;2023-05-11T08:36:46;100846.78;;;14.58;100.00
30636;BME280;17400;52.392;9.750;2023-05-11T08:39:14;100846.97;;;14.63;100.00
30636;BME280;17400;52.392;9.750;2023-05-11T08:42:00;100844.91;;;14.65;100.00
30636;BME280;17400;52.392;9.750;2023-05-11T08:44:31;100850.53;;;14.70;100.00
30636;BME280;17400;52.392;9.750;2023-05-11T08:47:03;100850.53;;;14.70;100.00
30636;BME280;17400;52.392;9.750;2023-05-11T08:49:49;100847.13;;;14.75;100.00
30636;BME280;17400;52.392;9.750;2023-05-11T08:52:19;100848.56;;;14.77;100.00
30636;BME280;17400;52.392;9.750;2023-05-11T08:54:47;100851.53;;;14.76;100.00
30636;BME280;17400;52.392;9.750;2023-05-11T08:57:18;100845.25;;;14.75;100.00
30636;BME280;17400;52.392;9.750;2023-05-11T08:59:48;100848.44;;;14.65;100.00
30636;BME280;17400;52.392;9.750;2023-05-11T09:02:18;100850.13;;;14.66;100.00
30636;BME280;17400;52.392;9.750;2023-05-11T09:04:48;100853.84;;;14.72;100.00
30636;BME280;17400;52.392;9.750;2023-05-11T09:07:18;100856.41;;;14.67;100.00
30636;BME280;17400;52.392;9.750;2023-05-11T09:09:47;100855.34;;;14.68;100.00
30636;BME280;17400;52.392;9.750;2023-05-11T09:12:15;100854.69;;;14.73;100.00
30636;BME280;17400;52.392;9.750;2023-05-11T09:14:43;100850.88;;;14.80;100.00
30636;BME280;17400;52.392;9.750;2023-05-11T09:17:12;100849.38;;;14.85;100.00
30636;BME280;17400;52.392;9.750;2023-05-11T09:19:55;100852.31;;;14.83;100.00
30636;BME280;17400;52.392;9.750;2023-05-11T09:22:25;100846.06;;;14.76;100.00
30636;BME280;17400;52.392;9.750;2023-05-11T09:24:58;100851.56;;;14.69;100.00
30636;BME280;17400;52.392;9.750;2023-05-11T09:27:25;100857.44;;;14.73;100.00
30636;BME280;17400;52.392;9.750;2023-05-11T09:29:53;100859.94;;;14.74;100.00
30636;BME280;17400;52.392;9.750;2023-05-11T09:32:21;100859.09;;;14.74;100.00
30636;BME280;17400;52.392;9.750;2023-05-11T09:34:49;100857.44;;;14.73;100.00
30636;BME280;17400;52.392;9.750;2023-05-11T09:37:17;100842.69;;;14.80;100.00
30636;BME280;17400;52.392;9.750;2023-05-11T09:39:52;100843.91;;;14.85;100.00
30636;BME280;17400;52.392;9.750;2023-05-11T09:42:40;100842.81;;;14.92;100.00
30636;BME280;17400;52.392;9.750;2023-05-11T09:45:09;100855.34;;;14.93;100.00
30636;BME280;17400;52.392;9.750;2023-05-11T09:47:38;100851.19;;;14.91;100.00
30636;BME280;17400;52.392;9.750;2023-05-11T09:50:15;100846.81;;;14.90;100.00
30636;BME280;17400;52.392;9.750;2023-05-11T09:52:49;100856.88;;;14.89;100.00
30636;BME280;17400;52.392;9.750;2023-05-11T09:55:18;100847.47;;;14.85;100.00
30636;BME280;17400;52.392;9.750;2023-05-11T09:57:52;100845.72;;;14.91;100.00
30636;BME280;17400;52.392;9.750;2023-05-11T10:00:21;100846.75;;;14.96;100.00
30636;BME280;17400;52.392;9.750;2023-05-11T10:03:00;100844.78;;;15.04;100.00
30636;BME280;17400;52.392;9.750;2023-05-11T10:05:29;100843.19;;;14.96;100.00
30636;BME280;17400;52.392;9.750;2023-05-11T10:07:59;100837.56;;;14.91;100.00
30636;BME280;17400;52.392;9.750;2023-05-11T10:10:31;100845.13;;;14.89;100.00
30636;BME280;17400;52.392;9.750;2023-05-11T10:13:00;100838.84;;;14.88;100.00
30636;BME280;17400;52.392;9.750;2023-05-11T10:15:31;100839.84;;;14.94;100.00
30636;BME280;17400;52.392;9.750;2023-05-11T10:17:59;100830.41;;;14.96;100.00
30636;BME280;17400;52.392;9.750;2023-05-11T10:20:27;100842.13;;;14.97;100.00
30636;BME280;17400;52.392;9.750;2023-05-11T10:22:55;100835.84;;;14.96;100.00
30636;BME280;17400;52.392;9.750;2023-05-11T10:25:24;100837.13;;;14.94;100.00
30636;BME280;17400;52.392;9.750;2023-05-11T10:27:53;100831.50;;;14.89;100.00
30636;BME280;17400;52.392;9.750;2023-05-11T10:30:22;100840.13;;;14.86;100.00
30636;BME280;17400;52.392;9.750;2023-05-11T10:32:51;100833.00;;;14.85;100.00
30636;BME280;17400;52.392;9.750;2023-05-11T10:35:22;100828.00;;;14.81;100.00
30636;BME280;17400;52.392;9.750;2023-05-11T10:37:49;100826.72;;;14.84;100.00
30636;BME280;17400;52.392;9.750;2023-05-11T10:40:17;100826.72;;;14.84;100.00
30636;BME280;17400;52.392;9.750;2023-05-11T10:43:14;100827.34;;;14.86;100.00
30636;BME280;17400;52.392;9.750;2023-05-11T10:45:51;100830.94;;;14.80;100.00
30636;BME280;17400;52.392;9.750;2023-05-11T10:48:44;100826.78;;;14.77;100.00
30636;BME280;17400;52.392;9.750;2023-05-11T10:51:28;100827.41;;;14.79;100.00
30636;BME280;17400;52.392;9.750;2023-05-11T10:54:11;100828.63;;;14.83;100.00
30636;BME280;17400;52.392;9.750;2023-05-11T10:57:06;100832.16;;;14.84;100.00
30636;BME280;17400;52.392;9.750;2023-05-11T10:59:54;100830.88;;;14.87;100.00
30636;BME280;17400;52.392;9.750;2023-05-11T11:02:35;100832.78;;;14.86;100.00
30636;BME280;17400;52.392;9.750;2023-05-11T11:05:04;100833.63;;;14.87;100.00
30636;BME280;17400;52.392;9.750;2023-05-11T11:07:55;100831.56;;;14.82;100.00
30636;BME280;17400;52.392;9.750;2023-05-11T11:10:30;100836.78;;;14.83;100.00
30636;BME280;17400;52.392;9.750;2023-05-11T11:13:03;100833.44;;;14.81;100.00
30636;BME280;17400;52.392;9.750;2023-05-11T11:16:10;100831.16;;;14.78;100.00
30636;BME280;17400;52.392;9.750;2023-05-11T11:18:42;100825.38;;;14.68;100.00
30636;BME280;17400;52.392;9.750;2023-05-11T11:21:09;100834.19;;;14.70;100.00
30636;BME280;17400;52.392;9.750;2023-05-11T11:23:45;100833.13;;;14.71;100.00
30636;BME280;17400;52.392;9.750;2023-05-11T11:26:17;100832.97;;;14.66;100.00
30636;BME280;17400;52.392;9.750;2023-05-11T11:29:07;100832.09;;;14.65;100.00
30636;BME280;17400;52.392;9.750;2023-05-11T11:31:37;100832.97;;;14.66;100.00
30636;BME280;17400;52.392;9.750;2023-05-11T11:34:33;100825.59;;;14.66;100.00
30636;BME280;17400;52.392;9.750;2023-05-11T11:37:06;100828.56;;;14.65;100.00
30636;BME280;17400;52.392;9.750;2023-05-11T11:42:41;100829.56;;;14.71;100.00
30636;BME280;17400;52.392;9.750;2023-05-11T11:45:27;100833.13;;;14.71;100.00
30636;BME280;17400;52.392;9.750;2023-05-11T11:48:07;100835.16;;;14.76;100.00
30636;BME280;17400;52.392;9.750;2023-05-11T11:50:35;100836.00;;;14.76;100.00
30636;BME280;17400;52.392;9.750;2023-05-11T11:53:03;100832.84;;;14.79;100.00
30636;BME280;17400;52.392;9.750;2023-05-11T11:55:44;100834.53;;;14.80;100.00
30636;BME280;17400;52.392;9.750;2023-05-11T12:01:15;100831.63;;;14.75;100.00
30636;BME280;17400;52.392;9.750;2023-05-11T12:03:50;100831.41;;;14.77;100.00
30636;BME280;17400;52.392;9.750;2023-05-11T12:06:20;100833.28;;;14.76;100.00
30636;BME280;17400;52.392;9.750;2023-05-11T12:08:52;100830.72;;;14.81;100.00
30636;BME280;17400;52.392;9.750;2023-05-11T12:11:20;100835.28;;;14.88;100.00
30636;BME280;17400;52.392;9.750;2023-05-11T12:13:48;100834.47;;;14.87;100.00
30636;BME280;17400;52.392;9.750;2023-05-11T12:16:16;100833.38;;;14.88;100.00
30636;BME280;17400;52.392;9.750;2023-05-11T12:18:52;100830.06;;;14.86;100.00
30636;BME280;17400;52.392;9.750;2023-05-11T12:21:21;100831.28;;;14.90;100.00
30636;BME280;17400;52.392;9.750;2023-05-11T12:23:51;100828.78;;;14.89;100.00
30636;BME280;17400;52.392;9.750;2023-05-11T12:26:20;100829.19;;;14.92;100.00
30636;BME280;17400;52.392;9.750;2023-05-11T12:28:49;100827.06;;;14.94;100.00
30636;BME280;17400;52.392;9.750;2023-05-11T12:31:18;100828.94;;;14.94;100.00
30636;BME280;17400;52.392;9.750;2023-05-11T12:33:46;100821.19;;;14.91;100.00
30636;BME280;17400;52.392;9.750;2023-05-11T12:36:17;100818.47;;;14.91;100.00
30636;BME280;17400;52.392;9.750;2023-05-11T12:38:46;100817.44;;;14.92;100.00
30636;BME280;17400;52.392;9.750;2023-05-11T12:41:18;100810.75;;;14.88;100.00
30636;BME280;17400;52.392;9.750;2023-05-11T12:43:47;100815.31;;;14.94;100.00
30636;BME280;17400;52.392;9.750;2023-05-11T12:46:16;100805.94;;;14.90;100.00
30636;BME280;17400;52.392;9.750;2023-05-11T12:48:45;100806.28;;;14.93;100.00
30636;BME280;17400;52.392;9.750;2023-05-11T12:51:45;100814.81;;;15.04;100.00
30636;BME280;17400;52.392;9.750;2023-05-11T12:54:27;100810.72;;;15.13;100.00
30636;BME280;17400;52.392;9.750;2023-05-11T12:56:55;100807.94;;;15.20;100.00
30636;BME280;17400;52.392;9.750;2023-05-11T12:59:29;100807.94;;;15.20;100.00
30636;BME280;17400;52.392;9.750;2023-05-11T13:02:05;100808.00;;;15.31;100.00
30636;BME280;17400;52.392;9.750;2023-05-11T13:04:32;100810.25;;;15.41;100.00
30636;BME280;17400;52.392;9.750;2023-05-11T13:07:02;100800.16;;;15.42;100.00
30636;BME280;17400;52.392;9.750;2023-05-11T13:09:30;100800.16;;;15.42;100.00